sensor_id;sensor_type;location;lat;lon;timestamp;P1;durP1;ratioP1;P2;durP2;ratioP2
23588;SDS011;11972;48.078;11.876;2022-09-25T00:03:29;56.15;;;29.42;;
23588;SDS011;11972;48.078;11.876;2022-09-25T00:07:30;19.98;;;14.65;;
23588;SDS011;11972;48.078;11.876;2022-09-25T00:11:31;25.27;;;18.17;;
23588;SDS011;11972;48.078;11.876;2022-09-25T00:15:31;21.30;;;15.52;;
23588;SDS011;11972;48.078;11.876;2022-09-25T00:19:32;18.13;;;14.77;;
23588;SDS011;11972;48.078;11.876;2022-09-25T00:23:50;23.52;;;15.30;;
23588;SDS011;11972;48.078;11.876;2022-09-25T00:27:52;17.05;;;13.73;;
23588;SDS011;11972;48.078;11.876;2022-09-25T00:31:53;22.25;;;15.80;;
23588;SDS011;11972;48.078;11.876;2022-09-25T00:35:54;18.58;;;13.95;;
23588;SDS011;11972;48.078;11.876;2022-09-25T00:39:54;16.17;;;13.57;;
23588;SDS011;11972;48.078;11.876;2022-09-25T00:43:56;51.72;;;19.40;;
23588;SDS011;11972;48.078;11.876;2022-09-25T00:47:58;92.25;;;35.50;;
23588;SDS011;11972;48.078;11.876;2022-09-25T00:52:02;96.18;;;32.25;;
23588;SDS011;11972;48.078;11.876;2022-09-25T00:56:06;62.92;;;24.30;;
23588;SDS011;11972;48.078;11.876;2022-09-25T01:00:11;17.95;;;12.65;;
23588;SDS011;11972;48.078;11.876;2022-09-25T01:04:12;15.90;;;11.23;;
23588;SDS011;11972;48.078;11.876;2022-09-25T01:08:15;28.83;;;8.48;;
23588;SDS011;11972;48.078;11.876;2022-09-25T01:12:18;23.27;;;8.52;;
23588;SDS011;11972;48.078;11.876;2022-09-25T01:16:22;12.73;;;8.10;;
23588;SDS011;11972;48.078;11.876;2022-09-25T01:20:47;40.58;;;11.18;;
23588;SDS011;11972;48.078;11.876;2022-09-25T01:33:40;23.20;;;11.05;;
23588;SDS011;11972;48.078;11.876;2022-09-25T01:42:19;26.13;;;9.25;;
23588;SDS011;11972;48.078;11.876;2022-09-25T01:46:29;22.20;;;11.27;;
23588;SDS011;11972;48.078;11.876;2022-09-25T01:50:41;32.40;;;12.75;;
23588;SDS011;11972;48.078;11.876;2022-09-25T01:54:50;29.90;;;11.02;;
23588;SDS011;11972;48.078;11.876;2022-09-25T02:03:16;24.10;;;9.82;;
23588;SDS011;11972;48.078;11.876;2022-09-25T02:07:26;17.85;;;10.30;;
23588;SDS011;11972;48.078;11.876;2022-09-25T02:11:32;27.33;;;10.38;;
23588;SDS011;11972;48.078;11.876;2022-09-25T02:15:37;13.80;;;7.07;;
23588;SDS011;11972;48.078;11.876;2022-09-25T02:19:42;21.27;;;7.22;;
23588;SDS011;11972;48.078;11.876;2022-09-25T02:28:24;8.57;;;7.18;;
23588;SDS011;11972;48.078;11.876;2022-09-25T02:32:27;9.35;;;7.57;;
23588;SDS011;11972;48.078;11.876;2022-09-25T02:36:30;9.10;;;8.30;;
23588;SDS011;11972;48.078;11.876;2022-09-25T03:02:18;9.80;;;8.90;;
23588;SDS011;11972;48.078;11.876;2022-09-25T03:06:21;10.63;;;9.18;;
23588;SDS011;11972;48.078;11.876;2022-09-25T03:10:22;9.40;;;8.32;;
23588;SDS011;11972;48.078;11.876;2022-09-25T03:14:23;9.27;;;7.78;;
23588;SDS011;11972;48.078;11.876;2022-09-25T03:18:24;8.43;;;7.38;;
23588;SDS011;11972;48.078;11.876;2022-09-25T03:22:25;8.25;;;7.45;;
23588;SDS011;11972;48.078;11.876;2022-09-25T03:26:26;7.80;;;7.10;;
23588;SDS011;11972;48.078;11.876;2022-09-25T03:30:26;7.32;;;6.70;;
23588;SDS011;11972;48.078;11.876;2022-09-25T03:34:28;8.43;;;7.57;;
23588;SDS011;11972;48.078;11.876;2022-09-25T03:38:28;7.70;;;7.00;;
23588;SDS011;11972;48.078;11.876;2022-09-25T03:42:28;8.05;;;7.00;;
23588;SDS011;11972;48.078;11.876;2022-09-25T03:46:33;9.00;;;8.10;;
23588;SDS011;11972;48.078;11.876;2022-09-25T03:50:34;7.45;;;6.70;;
23588;SDS011;11972;48.078;11.876;2022-09-25T03:54:35;7.15;;;6.43;;
23588;SDS011;11972;48.078;11.876;2022-09-25T03:58:35;6.85;;;6.00;;
23588;SDS011;11972;48.078;11.876;2022-09-25T04:02:35;6.68;;;6.07;;
23588;SDS011;11972;48.078;11.876;2022-09-25T04:06:36;9.07;;;7.32;;
23588;SDS011;11972;48.078;11.876;2022-09-25T04:10:36;7.22;;;6.72;;
23588;SDS011;11972;48.078;11.876;2022-09-25T04:14:37;21.10;;;15.93;;
23588;SDS011;11972;48.078;11.876;2022-09-25T04:18:38;16.98;;;12.60;;
23588;SDS011;11972;48.078;11.876;2022-09-25T04:22:40;11.00;;;9.52;;
23588;SDS011;11972;48.078;11.876;2022-09-25T04:26:41;86.13;;;32.88;;
23588;SDS011;11972;48.078;11.876;2022-09-25T04:30:41;12.47;;;8.53;;
23588;SDS011;11972;48.078;11.876;2022-09-25T04:34:41;176.20;;;60.35;;
23588;SDS011;11972;48.078;11.876;2022-09-25T04:38:42;33.53;;;14.88;;
23588;SDS011;11972;48.078;11.876;2022-09-25T04:42:42;38.60;;;16.05;;
23588;SDS011;11972;48.078;11.876;2022-09-25T04:46:43;15.90;;;8.60;;
23588;SDS011;11972;48.078;11.876;2022-09-25T04:50:47;12.43;;;8.38;;
23588;SDS011;11972;48.078;11.876;2022-09-25T04:54:48;86.20;;;32.20;;
23588;SDS011;11972;48.078;11.876;2022-09-25T04:58:48;39.17;;;17.05;;
23588;SDS011;11972;48.078;11.876;2022-09-25T05:02:49;15.57;;;8.55;;
23588;SDS011;11972;48.078;11.876;2022-09-25T05:06:49;4.83;;;4.00;;
23588;SDS011;11972;48.078;11.876;2022-09-25T05:10:50;4.10;;;3.75;;
23588;SDS011;11972;48.078;11.876;2022-09-25T05:14:50;213.77;;;72.07;;
23588;SDS011;11972;48.078;11.876;2022-09-25T05:18:51;17.40;;;8.00;;
23588;SDS011;11972;48.078;11.876;2022-09-25T05:22:55;150.35;;;56.97;;
23588;SDS011;11972;48.078;11.876;2022-09-25T05:26:56;81.30;;;32.70;;
23588;SDS011;11972;48.078;11.876;2022-09-25T05:30:58;15.18;;;8.75;;
23588;SDS011;11972;48.078;11.876;2022-09-25T05:35:02;10.15;;;5.97;;
23588;SDS011;11972;48.078;11.876;2022-09-25T05:39:03;7.38;;;5.82;;
23588;SDS011;11972;48.078;11.876;2022-09-25T05:43:03;10.50;;;5.73;;
23588;SDS011;11972;48.078;11.876;2022-09-25T05:47:07;8.63;;;6.07;;
23588;SDS011;11972;48.078;11.876;2022-09-25T05:51:07;11.98;;;8.43;;
23588;SDS011;11972;48.078;11.876;2022-09-25T05:55:08;19.23;;;14.82;;
23588;SDS011;11972;48.078;11.876;2022-09-25T05:59:09;13.85;;;9.85;;
23588;SDS011;11972;48.078;11.876;2022-09-25T06:03:09;12.73;;;9.27;;
23588;SDS011;11972;48.078;11.876;2022-09-25T06:07:10;8.13;;;7.00;;
23588;SDS011;11972;48.078;11.876;2022-09-25T06:11:11;25.63;;;17.03;;
23588;SDS011;11972;48.078;11.876;2022-09-25T06:15:11;8.18;;;6.82;;
23588;SDS011;11972;48.078;11.876;2022-09-25T06:19:11;7.95;;;7.10;;
23588;SDS011;11972;48.078;11.876;2022-09-25T06:23:12;7.50;;;6.67;;
23588;SDS011;11972;48.078;11.876;2022-09-25T06:27:13;5.50;;;4.95;;
23588;SDS011;11972;48.078;11.876;2022-09-25T06:31:13;4.90;;;4.22;;
23588;SDS011;11972;48.078;11.876;2022-09-25T06:35:13;4.40;;;4.07;;
23588;SDS011;11972;48.078;11.876;2022-09-25T06:39:14;4.88;;;4.40;;
23588;SDS011;11972;48.078;11.876;2022-09-25T06:43:15;4.87;;;4.37;;
23588;SDS011;11972;48.078;11.876;2022-09-25T06:47:15;3.75;;;3.45;;
23588;SDS011;11972;48.078;11.876;2022-09-25T06:51:16;4.65;;;3.95;;
23588;SDS011;11972;48.078;11.876;2022-09-25T06:55:17;5.25;;;4.18;;
23588;SDS011;11972;48.078;11.876;2022-09-25T06:59:17;5.72;;;5.18;;
23588;SDS011;11972;48.078;11.876;2022-09-25T07:03:18;7.20;;;5.83;;
23588;SDS011;11972;48.078;11.876;2022-09-25T07:07:37;9.40;;;5.10;;
23588;SDS011;11972;48.078;11.876;2022-09-25T07:11:37;4.03;;;3.77;;
23588;SDS011;11972;48.078;11.876;2022-09-25T07:15:42;3.83;;;3.53;;
23588;SDS011;11972;48.078;11.876;2022-09-25T07:19:50;3.70;;;3.40;;
23588;SDS011;11972;48.078;11.876;2022-09-25T07:23:50;2.77;;;2.57;;
23588;SDS011;11972;48.078;11.876;2022-09-25T07:27:51;2.97;;;2.78;;
23588;SDS011;11972;48.078;11.876;2022-09-25T07:31:51;3.13;;;2.83;;
23588;SDS011;11972;48.078;11.876;2022-09-25T07:35:51;2.73;;;2.53;;
23588;SDS011;11972;48.078;11.876;2022-09-25T07:39:52;3.28;;;3.08;;
23588;SDS011;11972;48.078;11.876;2022-09-25T07:43:53;3.77;;;3.47;;
23588;SDS011;11972;48.078;11.876;2022-09-25T07:47:57;4.38;;;4.07;;
23588;SDS011;11972;48.078;11.876;2022-09-25T07:52:00;3.85;;;3.55;;
23588;SDS011;11972;48.078;11.876;2022-09-25T07:56:01;4.03;;;3.72;;
23588;SDS011;11972;48.078;11.876;2022-09-25T08:00:02;3.72;;;3.40;;
23588;SDS011;11972;48.078;11.876;2022-09-25T08:04:04;3.70;;;3.40;;
23588;SDS011;11972;48.078;11.876;2022-09-25T08:08:05;4.10;;;3.80;;
23588;SDS011;11972;48.078;11.876;2022-09-25T08:12:05;4.25;;;3.80;;
23588;SDS011;11972;48.078;11.876;2022-09-25T08:16:11;3.88;;;3.63;;
23588;SDS011;11972;48.078;11.876;2022-09-25T08:20:12;4.32;;;4.03;;
23588;SDS011;11972;48.078;11.876;2022-09-25T08:24:13;3.97;;;3.78;;
23588;SDS011;11972;48.078;11.876;2022-09-25T08:28:14;3.53;;;3.33;;
23588;SDS011;11972;48.078;11.876;2022-09-25T08:32:15;3.28;;;2.90;;
23588;SDS011;11972;48.078;11.876;2022-09-25T08:36:15;3.27;;;3.07;;
23588;SDS011;11972;48.078;11.876;2022-09-25T08:40:17;2.92;;;2.72;;
23588;SDS011;11972;48.078;11.876;2022-09-25T08:44:21;3.40;;;3.10;;
23588;SDS011;11972;48.078;11.876;2022-09-25T08:48:27;3.85;;;3.55;;
23588;SDS011;11972;48.078;11.876;2022-09-25T08:52:54;4.82;;;4.53;;
23588;SDS011;11972;48.078;11.876;2022-09-25T08:57:05;2.53;;;2.35;;
23588;SDS011;11972;48.078;11.876;2022-09-25T09:01:19;2.70;;;2.50;;
23588;SDS011;11972;48.078;11.876;2022-09-25T09:05:24;2.30;;;2.20;;
23588;SDS011;11972;48.078;11.876;2022-09-25T09:09:36;2.60;;;2.40;;
23588;SDS011;11972;48.078;11.876;2022-09-25T09:13:57;3.50;;;3.13;;
23588;SDS011;11972;48.078;11.876;2022-09-25T09:18:08;2.60;;;2.30;;
23588;SDS011;11972;48.078;11.876;2022-09-25T09:22:20;2.90;;;2.70;;
23588;SDS011;11972;48.078;11.876;2022-09-25T09:39:12;2.30;;;2.20;;
23588;SDS011;11972;48.078;11.876;2022-09-25T09:56:40;2.17;;;2.08;;
23588;SDS011;11972;48.078;11.876;2022-09-25T10:00:46;2.55;;;2.42;;
23588;SDS011;11972;48.078;11.876;2022-09-25T10:04:48;2.65;;;2.45;;
23588;SDS011;11972;48.078;11.876;2022-09-25T10:08:49;2.83;;;2.63;;
23588;SDS011;11972;48.078;11.876;2022-09-25T10:12:50;2.50;;;2.30;;
23588;SDS011;11972;48.078;11.876;2022-09-25T10:16:53;2.55;;;2.38;;
23588;SDS011;11972;48.078;11.876;2022-09-25T10:20:58;2.40;;;2.30;;
23588;SDS011;11972;48.078;11.876;2022-09-25T10:25:04;2.75;;;2.38;;
23588;SDS011;11972;48.078;11.876;2022-09-25T10:33:10;2.83;;;2.63;;
23588;SDS011;11972;48.078;11.876;2022-09-25T10:37:17;24.73;;;21.40;;
23588;SDS011;11972;48.078;11.876;2022-09-25T10:41:21;4.30;;;4.03;;
23588;SDS011;11972;48.078;11.876;2022-09-25T10:49:23;3.20;;;3.00;;
23588;SDS011;11972;48.078;11.876;2022-09-25T10:53:44;4.13;;;3.83;;
23588;SDS011;11972;48.078;11.876;2022-09-25T10:57:45;4.30;;;4.03;;
23588;SDS011;11972;48.078;11.876;2022-09-25T11:01:47;9.82;;;4.47;;
23588;SDS011;11972;48.078;11.876;2022-09-25T11:05:53;4.30;;;4.00;;
23588;SDS011;11972;48.078;11.876;2022-09-25T11:10:00;4.07;;;3.78;;
23588;SDS011;11972;48.078;11.876;2022-09-25T11:14:01;4.80;;;4.50;;
23588;SDS011;11972;48.078;11.876;2022-09-25T11:18:04;4.78;;;4.47;;
23588;SDS011;11972;48.078;11.876;2022-09-25T11:26:18;7.95;;;4.00;;
23588;SDS011;11972;48.078;11.876;2022-09-25T11:30:24;3.50;;;3.30;;
23588;SDS011;11972;48.078;11.876;2022-09-25T11:34:44;4.75;;;4.45;;
23588;SDS011;11972;48.078;11.876;2022-09-25T11:39:10;4.70;;;4.22;;
23588;SDS011;11972;48.078;11.876;2022-09-25T11:47:59;4.00;;;3.65;;
23588;SDS011;11972;48.078;11.876;2022-09-25T11:52:12;3.10;;;2.90;;
23588;SDS011;11972;48.078;11.876;2022-09-25T11:56:18;3.10;;;2.90;;
23588;SDS011;11972;48.078;11.876;2022-09-25T12:00:40;3.00;;;2.72;;
23588;SDS011;11972;48.078;11.876;2022-09-25T12:09:49;2.85;;;2.65;;
23588;SDS011;11972;48.078;11.876;2022-09-25T12:22:41;3.85;;;2.55;;
23588;SDS011;11972;48.078;11.876;2022-09-25T12:27:37;2.83;;;2.63;;
23588;SDS011;11972;48.078;11.876;2022-09-25T12:39:54;1.60;;;1.50;;
23588;SDS011;11972;48.078;11.876;2022-09-25T12:44:03;1.60;;;1.50;;
23588;SDS011;11972;48.078;11.876;2022-09-25T12:48:30;1.80;;;1.70;;
23588;SDS011;11972;48.078;11.876;2022-09-25T12:52:37;3.08;;;2.80;;
23588;SDS011;11972;48.078;11.876;2022-09-25T12:56:57;1.95;;;1.85;;
23588;SDS011;11972;48.078;11.876;2022-09-25T13:01:04;2.00;;;1.90;;
23588;SDS011;11972;48.078;11.876;2022-09-25T13:09:33;3.05;;;2.80;;
23588;SDS011;11972;48.078;11.876;2022-09-25T13:13:45;3.67;;;3.47;;
23588;SDS011;11972;48.078;11.876;2022-09-25T13:17:50;4.05;;;3.75;;
23588;SDS011;11972;48.078;11.876;2022-09-25T13:21:51;3.95;;;3.53;;
23588;SDS011;11972;48.078;11.876;2022-09-25T13:25:59;4.30;;;4.00;;
23588;SDS011;11972;48.078;11.876;2022-09-25T13:30:18;4.65;;;4.25;;
23588;SDS011;11972;48.078;11.876;2022-09-25T13:34:19;5.10;;;4.70;;
23588;SDS011;11972;48.078;11.876;2022-09-25T13:38:23;4.78;;;4.38;;
23588;SDS011;11972;48.078;11.876;2022-09-25T13:42:43;5.07;;;4.75;;
23588;SDS011;11972;48.078;11.876;2022-09-25T13:46:48;6.03;;;5.53;;
23588;SDS011;11972;48.078;11.876;2022-09-25T13:50:48;6.25;;;5.82;;
23588;SDS011;11972;48.078;11.876;2022-09-25T13:55:06;6.95;;;6.28;;
23588;SDS011;11972;48.078;11.876;2022-09-25T13:59:19;6.15;;;5.75;;
23588;SDS011;11972;48.078;11.876;2022-09-25T14:07:38;16.30;;;12.23;;
23588;SDS011;11972;48.078;11.876;2022-09-25T14:11:41;16.50;;;14.80;;
23588;SDS011;11972;48.078;11.876;2022-09-25T14:15:48;17.37;;;15.50;;
23588;SDS011;11972;48.078;11.876;2022-09-25T14:19:50;17.58;;;14.77;;
23588;SDS011;11972;48.078;11.876;2022-09-25T14:23:57;13.25;;;11.85;;
23588;SDS011;11972;48.078;11.876;2022-09-25T14:28:20;14.20;;;12.73;;
23588;SDS011;11972;48.078;11.876;2022-09-25T14:32:37;15.30;;;12.65;;
23588;SDS011;11972;48.078;11.876;2022-09-25T14:54:17;27.33;;;19.35;;
23588;SDS011;11972;48.078;11.876;2022-09-25T14:58:25;31.23;;;20.73;;
23588;SDS011;11972;48.078;11.876;2022-09-25T15:02:38;31.63;;;22.25;;
23588;SDS011;11972;48.078;11.876;2022-09-25T15:06:40;31.35;;;21.08;;
23588;SDS011;11972;48.078;11.876;2022-09-25T15:10:43;24.50;;;19.20;;
23588;SDS011;11972;48.078;11.876;2022-09-25T15:19:20;29.02;;;21.27;;
23588;SDS011;11972;48.078;11.876;2022-09-25T15:23:26;27.23;;;22.65;;
23588;SDS011;11972;48.078;11.876;2022-09-25T15:27:26;21.27;;;19.08;;
23588;SDS011;11972;48.078;11.876;2022-09-25T15:31:33;24.00;;;18.60;;
23588;SDS011;11972;48.078;11.876;2022-09-25T15:35:35;22.97;;;18.37;;
23588;SDS011;11972;48.078;11.876;2022-09-25T15:39:39;24.98;;;20.50;;
23588;SDS011;11972;48.078;11.876;2022-09-25T15:43:40;33.95;;;22.48;;
23588;SDS011;11972;48.078;11.876;2022-09-25T15:47:48;29.95;;;20.73;;
23588;SDS011;11972;48.078;11.876;2022-09-25T15:51:53;32.92;;;22.00;;
23588;SDS011;11972;48.078;11.876;2022-09-25T15:56:00;42.22;;;22.13;;
23588;SDS011;11972;48.078;11.876;2022-09-25T16:00:05;39.13;;;21.60;;
23588;SDS011;11972;48.078;11.876;2022-09-25T16:04:26;33.03;;;20.30;;
23588;SDS011;11972;48.078;11.876;2022-09-25T16:08:45;29.13;;;19.60;;
23588;SDS011;11972;48.078;11.876;2022-09-25T16:12:47;34.05;;;21.45;;
23588;SDS011;11972;48.078;11.876;2022-09-25T16:16:49;40.58;;;22.02;;
23588;SDS011;11972;48.078;11.876;2022-09-25T16:21:05;37.92;;;20.38;;
23588;SDS011;11972;48.078;11.876;2022-09-25T16:25:18;34.50;;;21.50;;
23588;SDS011;11972;48.078;11.876;2022-09-25T16:29:28;29.02;;;19.88;;
23588;SDS011;11972;48.078;11.876;2022-09-25T16:33:36;34.55;;;20.08;;
23588;SDS011;11972;48.078;11.876;2022-09-25T16:37:39;36.05;;;21.10;;
23588;SDS011;11972;48.078;11.876;2022-09-25T16:41:42;35.38;;;20.13;;
23588;SDS011;11972;48.078;11.876;2022-09-25T16:45:58;33.58;;;19.83;;
23588;SDS011;11972;48.078;11.876;2022-09-25T16:50:00;24.88;;;16.98;;
23588;SDS011;11972;48.078;11.876;2022-09-25T16:54:00;44.57;;;21.13;;
23588;SDS011;11972;48.078;11.876;2022-09-25T16:58:00;35.67;;;19.80;;
23588;SDS011;11972;48.078;11.876;2022-09-25T17:02:03;32.28;;;18.50;;
23588;SDS011;11972;48.078;11.876;2022-09-25T17:06:17;38.42;;;19.40;;
23588;SDS011;11972;48.078;11.876;2022-09-25T17:10:23;39.88;;;19.17;;
23588;SDS011;11972;48.078;11.876;2022-09-25T17:14:28;35.05;;;19.10;;
23588;SDS011;11972;48.078;11.876;2022-09-25T17:18:29;34.25;;;18.25;;
23588;SDS011;11972;48.078;11.876;2022-09-25T17:22:29;26.05;;;16.98;;
23588;SDS011;11972;48.078;11.876;2022-09-25T17:26:30;32.53;;;18.05;;
23588;SDS011;11972;48.078;11.876;2022-09-25T17:30:30;27.52;;;17.42;;
23588;SDS011;11972;48.078;11.876;2022-09-25T17:34:30;25.13;;;17.38;;
23588;SDS011;11972;48.078;11.876;2022-09-25T17:38:32;33.55;;;18.90;;
23588;SDS011;11972;48.078;11.876;2022-09-25T17:42:35;24.58;;;16.75;;
23588;SDS011;11972;48.078;11.876;2022-09-25T17:46:35;27.60;;;17.20;;
23588;SDS011;11972;48.078;11.876;2022-09-25T17:50:35;52.70;;;23.10;;
23588;SDS011;11972;48.078;11.876;2022-09-25T17:54:37;39.33;;;19.63;;
23588;SDS011;11972;48.078;11.876;2022-09-25T17:58:37;33.87;;;18.67;;
23588;SDS011;11972;48.078;11.876;2022-09-25T18:02:38;53.30;;;21.58;;
23588;SDS011;11972;48.078;11.876;2022-09-25T18:06:38;46.25;;;20.70;;
23588;SDS011;11972;48.078;11.876;2022-09-25T18:10:42;40.45;;;19.83;;
23588;SDS011;11972;48.078;11.876;2022-09-25T18:14:43;28.83;;;17.08;;
23588;SDS011;11972;48.078;11.876;2022-09-25T18:18:45;43.80;;;19.15;;
23588;SDS011;11972;48.078;11.876;2022-09-25T18:23:04;32.30;;;17.77;;
23588;SDS011;11972;48.078;11.876;2022-09-25T18:27:05;21.98;;;16.00;;
23588;SDS011;11972;48.078;11.876;2022-09-25T18:31:05;26.15;;;16.65;;
23588;SDS011;11972;48.078;11.876;2022-09-25T18:35:06;31.80;;;19.45;;
23588;SDS011;11972;48.078;11.876;2022-09-25T18:39:07;42.90;;;25.00;;
23588;SDS011;11972;48.078;11.876;2022-09-25T18:43:08;51.97;;;26.27;;
23588;SDS011;11972;48.078;11.876;2022-09-25T18:47:09;148.93;;;44.58;;
23588;SDS011;11972;48.078;11.876;2022-09-25T18:51:10;72.03;;;35.63;;
23588;SDS011;11972;48.078;11.876;2022-09-25T18:55:11;84.70;;;33.50;;
23588;SDS011;11972;48.078;11.876;2022-09-25T18:59:11;98.63;;;37.15;;
23588;SDS011;11972;48.078;11.876;2022-09-25T19:03:12;54.05;;;26.13;;
23588;SDS011;11972;48.078;11.876;2022-09-25T19:07:13;45.50;;;23.13;;
23588;SDS011;11972;48.078;11.876;2022-09-25T19:11:13;40.08;;;21.27;;
23588;SDS011;11972;48.078;11.876;2022-09-25T19:15:14;32.95;;;19.13;;
23588;SDS011;11972;48.078;11.876;2022-09-25T19:19:15;39.63;;;21.83;;
23588;SDS011;11972;48.078;11.876;2022-09-25T19:23:15;35.70;;;20.35;;
23588;SDS011;11972;48.078;11.876;2022-09-25T19:27:16;29.30;;;17.95;;
23588;SDS011;11972;48.078;11.876;2022-09-25T19:31:17;26.83;;;17.40;;
23588;SDS011;11972;48.078;11.876;2022-09-25T19:35:20;26.10;;;16.98;;
23588;SDS011;11972;48.078;11.876;2022-09-25T19:39:20;35.63;;;20.90;;
23588;SDS011;11972;48.078;11.876;2022-09-25T19:43:21;24.70;;;16.83;;
23588;SDS011;11972;48.078;11.876;2022-09-25T19:47:22;25.03;;;16.93;;
23588;SDS011;11972;48.078;11.876;2022-09-25T19:51:23;23.73;;;17.05;;
23588;SDS011;11972;48.078;11.876;2022-09-25T19:55:24;32.03;;;20.15;;
23588;SDS011;11972;48.078;11.876;2022-09-25T19:59:25;30.67;;;19.93;;
23588;SDS011;11972;48.078;11.876;2022-09-25T20:03:25;26.30;;;16.40;;
23588;SDS011;11972;48.078;11.876;2022-09-25T20:07:25;18.42;;;12.98;;
23588;SDS011;11972;48.078;11.876;2022-09-25T20:11:26;24.58;;;15.60;;
23588;SDS011;11972;48.078;11.876;2022-09-25T20:15:27;15.73;;;11.93;;
23588;SDS011;11972;48.078;11.876;2022-09-25T20:19:27;15.68;;;12.43;;
23588;SDS011;11972;48.078;11.876;2022-09-25T20:23:28;14.82;;;10.63;;
23588;SDS011;11972;48.078;11.876;2022-09-25T20:27:28;8.65;;;7.85;;
23588;SDS011;11972;48.078;11.876;2022-09-25T20:31:29;11.80;;;9.17;;
23588;SDS011;11972;48.078;11.876;2022-09-25T20:35:32;9.95;;;7.65;;
23588;SDS011;11972;48.078;11.876;2022-09-25T20:39:32;9.18;;;8.27;;
23588;SDS011;11972;48.078;11.876;2022-09-25T20:43:32;7.50;;;6.80;;
23588;SDS011;11972;48.078;11.876;2022-09-25T20:47:34;7.28;;;5.90;;
23588;SDS011;11972;48.078;11.876;2022-09-25T20:51:35;7.00;;;6.40;;
23588;SDS011;11972;48.078;11.876;2022-09-25T20:55:35;7.75;;;6.53;;
23588;SDS011;11972;48.078;11.876;2022-09-25T20:59:37;7.35;;;5.22;;
23588;SDS011;11972;48.078;11.876;2022-09-25T21:03:38;8.27;;;6.00;;
23588;SDS011;11972;48.078;11.876;2022-09-25T21:07:40;7.65;;;6.88;;
23588;SDS011;11972;48.078;11.876;2022-09-25T21:11:41;12.77;;;8.48;;
23588;SDS011;11972;48.078;11.876;2022-09-25T21:15:42;10.00;;;7.65;;
23588;SDS011;11972;48.078;11.876;2022-09-25T21:19:42;10.10;;;6.55;;
23588;SDS011;11972;48.078;11.876;2022-09-25T21:23:45;8.57;;;7.40;;
23588;SDS011;11972;48.078;11.876;2022-09-25T21:27:48;10.32;;;8.88;;
23588;SDS011;11972;48.078;11.876;2022-09-25T21:31:48;6.20;;;5.60;;
23588;SDS011;11972;48.078;11.876;2022-09-25T21:35:49;7.07;;;6.37;;
23588;SDS011;11972;48.078;11.876;2022-09-25T21:39:49;6.17;;;5.57;;
23588;SDS011;11972;48.078;11.876;2022-09-25T21:43:52;6.50;;;5.82;;
23588;SDS011;11972;48.078;11.876;2022-09-25T21:47:54;6.95;;;6.25;;
23588;SDS011;11972;48.078;11.876;2022-09-25T21:51:55;8.07;;;5.85;;
23588;SDS011;11972;48.078;11.876;2022-09-25T21:56:06;5.50;;;4.65;;
23588;SDS011;11972;48.078;11.876;2022-09-25T22:00:07;4.97;;;4.35;;
23588;SDS011;11972;48.078;11.876;2022-09-25T22:04:10;5.40;;;4.22;;
23588;SDS011;11972;48.078;11.876;2022-09-25T22:08:11;5.03;;;3.78;;
23588;SDS011;11972;48.078;11.876;2022-09-25T22:12:11;5.27;;;4.13;;
23588;SDS011;11972;48.078;11.876;2022-09-25T22:16:13;4.10;;;3.07;;
23588;SDS011;11972;48.078;11.876;2022-09-25T22:20:14;3.35;;;3.15;;
23588;SDS011;11972;48.078;11.876;2022-09-25T22:24:14;5.68;;;3.92;;
23588;SDS011;11972;48.078;11.876;2022-09-25T22:28:16;2.70;;;2.50;;
23588;SDS011;11972;48.078;11.876;2022-09-25T22:32:17;4.53;;;2.70;;
23588;SDS011;11972;48.078;11.876;2022-09-25T22:36:17;3.20;;;3.00;;
23588;SDS011;11972;48.078;11.876;2022-09-25T22:40:17;3.63;;;3.00;;
23588;SDS011;11972;48.078;11.876;2022-09-25T22:44:18;3.63;;;3.30;;
23588;SDS011;11972;48.078;11.876;2022-09-25T22:48:19;3.22;;;3.00;;
23588;SDS011;11972;48.078;11.876;2022-09-25T22:52:19;2.83;;;2.63;;
23588;SDS011;11972;48.078;11.876;2022-09-25T22:56:21;3.33;;;3.03;;
23588;SDS011;11972;48.078;11.876;2022-09-25T23:00:24;3.33;;;3.13;;
23588;SDS011;11972;48.078;11.876;2022-09-25T23:04:24;2.92;;;2.70;;
23588;SDS011;11972;48.078;11.876;2022-09-25T23:08:24;3.30;;;3.00;;
23588;SDS011;11972;48.078;11.876;2022-09-25T23:12:25;3.42;;;3.13;;
23588;SDS011;11972;48.078;11.876;2022-09-25T23:16:25;3.38;;;2.83;;
23588;SDS011;11972;48.078;11.876;2022-09-25T23:20:26;3.00;;;2.80;;
23588;SDS011;11972;48.078;11.876;2022-09-25T23:24:27;4.97;;;3.03;;
23588;SDS011;11972;48.078;11.876;2022-09-25T23:28:27;4.55;;;3.42;;
23588;SDS011;11972;48.078;11.876;2022-09-25T23:32:27;3.22;;;3.03;;
23588;SDS011;11972;48.078;11.876;2022-09-25T23:36:28;3.50;;;3.10;;
23588;SDS011;11972;48.078;11.876;2022-09-25T23:40:29;3.90;;;3.60;;
23588;SDS011;11972;48.078;11.876;2022-09-25T23:44:29;3.27;;;2.97;;
23588;SDS011;11972;48.078;11.876;2022-09-25T23:48:29;2.53;;;2.33;;
23588;SDS011;11972;48.078;11.876;2022-09-25T23:52:30;2.60;;;2.40;;
23588;SDS011;11972;48.078;11.876;2022-09-25T23:56:31;2.78;;;2.53;;
